Time;durP1;ratioP1;P1;durP2;ratioP2;P2;SDS_P1;SDS_P2;PMS_P1;PMS_P2;Temp;Humidity;BMP_temperature;BMP_pressure;BME280_temperature;BME280_humidity;BME280_pressure;Samples;Min_cycle;Max_cycle;Signal;HPM_P1;HPM_P2
2021/12/01 00:00:48;;;;;;;2.00;1.03;;;;;;;5.34;100.00;99252.25;5070702;28;20167;-78
2021/12/01 00:03:14;;;;;;;2.03;1.03;;;;;;;5.42;100.00;99256.16;5071863;28;20183;-79
2021/12/01 00:05:39;;;;;;;2.40;1.13;;;;;;;5.48;100.00;99238.66;5071208;28;20175;-78
2021/12/01 00:08:05;;;;;;;1.43;0.50;;;;;;;5.50;100.00;99236.47;5071248;28;20202;-78
2021/12/01 00:10:34;;;;;;;0.97;0.93;;;;;;;5.44;100.00;99230.34;5071329;28;20174;-78
2021/12/01 00:13:03;;;;;;;5.73;1.50;;;;;;;5.54;100.00;99227.41;5070013;28;20534;-78
2021/12/01 00:15:28;;;;;;;3.00;1.67;;;;;;;5.34;100.00;99209.72;5069043;28;20689;-78
2021/12/01 00:17:54;;;;;;;1.90;1.03;;;;;;;5.48;100.00;99211.56;5071757;28;20240;-78
2021/12/01 00:20:20;;;;;;;1.50;1.23;;;;;;;5.52;100.00;99202.53;5071110;28;20578;-78
2021/12/01 00:22:47;;;;;;;1.37;1.27;;;;;;;5.45;100.00;99209.47;5071228;28;20178;-77
2021/12/01 00:25:15;;;;;;;0.77;0.60;;;;;;;5.46;100.00;99194.81;5071064;28;20167;-78
2021/12/01 00:27:42;;;;;;;1.00;0.90;;;;;;;5.37;100.00;99192.88;5071245;28;20182;-78
2021/12/01 00:30:09;;;;;;;2.33;1.30;;;;;;;5.38;100.00;99183.63;5071275;28;20181;-79
2021/12/01 00:32:35;;;;;;;1.63;1.23;;;;;;;5.40;100.00;99168.97;5069743;28;20641;-78
2021/12/01 00:35:01;;;;;;;1.53;1.00;;;;;;;5.31;100.00;99163.50;5070736;28;20202;-78
2021/12/01 00:37:27;;;;;;;7.43;0.87;;;;;;;5.40;100.00;99152.75;5071299;28;20189;-78
2021/12/01 00:39:52;;;;;;;0.80;0.80;;;;;;;5.42;100.00;99158.63;5070988;28;20174;-78
2021/12/01 00:42:20;;;;;;;3.90;0.90;;;;;;;5.41;100.00;99147.00;5069746;28;20182;-79
2021/12/01 00:44:49;;;;;;;0.83;0.70;;;;;;;5.44;100.00;99140.97;5070778;28;20178;-78
2021/12/01 00:47:15;;;;;;;1.40;1.30;;;;;;;5.49;100.00;99134.63;5070837;28;20220;-78
2021/12/01 00:49:41;;;;;;;1.93;1.20;;;;;;;5.37;100.00;99130.59;5071143;28;20206;-78
2021/12/01 00:52:06;;;;;;;1.87;1.23;;;;;;;5.39;100.00;99127.56;5070970;28;20166;-78
2021/12/01 00:54:32;;;;;;;1.07;0.77;;;;;;;5.31;100.00;99120.16;5070769;28;20535;-78
2021/12/01 00:56:57;;;;;;;1.17;1.07;;;;;;;5.36;100.00;99107.31;5070813;28;20170;-77
2021/12/01 00:59:23;;;;;;;1.47;1.00;;;;;;;5.39;100.00;99100.47;5070820;28;20522;-78
2021/12/01 01:01:48;;;;;;;2.40;0.73;;;;;;;5.44;100.00;99096.84;5070834;28;20186;-77
2021/12/01 01:04:14;;;;;;;0.90;0.90;;;;;;;5.44;100.00;99094.94;5070726;28;20258;-77
2021/12/01 01:06:41;;;;;;;1.17;0.77;;;;;;;5.42;100.00;99090.94;5070819;28;20186;-78
2021/12/01 01:09:07;;;;;;;0.80;0.80;;;;;;;5.45;100.00;99087.59;5070582;28;20237;-77
2021/12/01 01:17:06;;;;;;;0.60;0.60;;;;;;;5.62;100.00;99074.94;5070749;28;20188;-78
2021/12/01 01:19:33;;;;;;;0.60;0.60;;;;;;;5.55;100.00;99068.38;5070703;28;20630;-78
2021/12/01 01:22:00;;;;;;;0.80;0.57;;;;;;;5.52;100.00;99058.16;5070536;28;20626;-78
2021/12/01 01:24:26;;;;;;;0.70;0.70;;;;;;;5.50;100.00;99052.28;5070533;28;20232;-78
2021/12/01 01:26:52;;;;;;;0.70;0.60;;;;;;;5.53;100.00;99051.63;5070416;28;20182;-78
2021/12/01 01:29:21;;;;;;;0.60;0.60;;;;;;;5.53;100.00;99046.22;5070594;28;20483;-78
2021/12/01 01:31:50;;;;;;;0.90;0.80;;;;;;;5.45;100.00;99036.13;5070645;28;20174;-79
2021/12/01 01:34:15;;;;;;;3.60;0.80;;;;;;;5.50;100.00;99044.16;5070370;28;20232;-78
2021/12/01 01:36:40;;;;;;;0.40;0.40;;;;;;;5.51;100.00;99034.91;5070291;28;20603;-78
2021/12/01 01:39:06;;;;;;;0.30;0.30;;;;;;;5.55;100.00;99027.75;5070391;28;20186;-77
2021/12/01 01:41:31;;;;;;;0.33;0.30;;;;;;;5.62;100.00;99036.19;5070695;28;20178;-78
2021/12/01 01:43:57;;;;;;;0.70;0.40;;;;;;;5.67;100.00;99003.56;5070536;28;20190;-78
2021/12/01 01:46:22;;;;;;;0.10;0.10;;;;;;;5.76;100.00;99023.34;5068948;28;20178;-78
2021/12/01 01:48:53;;;;;;;0.20;0.10;;;;;;;5.89;100.00;99010.78;5070433;28;20175;-79
2021/12/01 01:51:24;;;;;;;0.07;0.07;;;;;;;5.94;100.00;99003.34;5070805;28;20530;-78
2021/12/01 01:53:53;;;;;;;0.00;0.00;;;;;;;5.94;100.00;98994.44;5070290;28;20273;-79
2021/12/01 01:56:18;;;;;;;0.20;0.20;;;;;;;6.00;100.00;98989.63;5070114;28;20207;-78
2021/12/01 01:58:45;;;;;;;0.07;0.07;;;;;;;6.03;100.00;98978.16;5070314;28;20580;-78
2021/12/01 02:03:53;;;;;;;0.00;0.00;;;;;;;6.13;100.00;98958.88;5070299;28;20201;-78
2021/12/01 02:06:23;;;;;;;0.30;0.30;;;;;;;6.12;100.00;98957.28;5070020;28;20182;-78
2021/12/01 02:08:50;;;;;;;0.17;0.17;;;;;;;6.14;100.00;98952.34;5070209;28;20213;-78
2021/12/01 02:11:17;;;;;;;0.10;0.03;;;;;;;6.26;100.00;98945.16;5070214;28;20167;-77
2021/12/01 02:13:44;;;;;;;0.20;0.20;;;;;;;6.26;100.00;98934.31;5070052;28;20170;-78
2021/12/01 02:16:13;;;;;;;0.10;0.10;;;;;;;6.29;100.00;98934.78;5069852;28;20194;-78
2021/12/01 02:18:40;;;;;;;0.03;0.00;;;;;;;6.27;100.00;98926.97;5070112;28;20202;-76
2021/12/01 02:21:26;;;;;;;0.10;0.10;;;;;;;6.36;100.00;98916.09;5069896;28;20166;-76
2021/12/01 02:23:52;;;;;;;0.00;0.00;;;;;;;6.26;100.00;98898.25;5070332;28;20170;-78
2021/12/01 02:26:20;;;;;;;0.00;0.00;;;;;;;6.31;100.00;98891.88;5073393;28;20653;-78
2021/12/01 02:28:49;;;;;;;0.20;0.20;;;;;;;6.14;100.00;98889.97;5073583;28;20210;-78
2021/12/01 02:31:15;;;;;;;0.27;0.20;;;;;;;6.06;100.00;98875.28;5073577;28;20597;-78
2021/12/01 02:33:41;;;;;;;0.30;0.30;;;;;;;6.12;100.00;98876.75;5073559;28;20178;-78
2021/12/01 02:36:11;;;;;;;0.10;0.10;;;;;;;6.04;100.00;98874.03;5073894;28;20559;-78
2021/12/01 02:38:38;;;;;;;0.17;0.17;;;;;;;6.07;100.00;98873.38;5073556;28;20178;-78
2021/12/01 02:41:03;;;;;;;0.60;0.20;;;;;;;6.12;100.00;98867.81;5073373;28;20178;-77
2021/12/01 02:43:30;;;;;;;0.40;0.40;;;;;;;6.14;100.00;98865.56;5073379;28;20262;-78
2021/12/01 02:45:56;;;;;;;0.30;0.23;;;;;;;6.09;100.00;98853.00;5073027;28;20178;-78
2021/12/01 02:48:22;;;;;;;0.77;0.10;;;;;;;6.10;100.00;98846.44;5073353;28;20241;-77
2021/12/01 02:50:48;;;;;;;0.20;0.20;;;;;;;6.18;100.00;98832.06;5073230;28;20282;-76
2021/12/01 02:53:14;;;;;;;0.10;0.10;;;;;;;6.22;100.00;98830.31;5073142;28;20202;-77
2021/12/01 02:55:58;;;;;;;0.00;0.00;;;;;;;6.07;100.00;98814.53;5072869;28;20323;-77
2021/12/01 02:58:25;;;;;;;0.30;0.20;;;;;;;6.06;100.00;98802.09;5073173;28;20568;-78
2021/12/01 03:00:52;;;;;;;0.00;0.00;;;;;;;6.13;100.00;98805.13;5073071;28;20212;-77
2021/12/01 03:03:18;;;;;;;0.10;0.10;;;;;;;6.39;100.00;98796.13;5073295;28;20181;-77
2021/12/01 03:05:48;;;;;;;0.00;0.00;;;;;;;6.58;100.00;98788.41;5072728;28;20178;-77
2021/12/01 03:08:15;;;;;;;0.10;0.10;;;;;;;6.76;100.00;98795.34;5072800;28;20208;-78
2021/12/01 03:10:42;;;;;;;0.00;0.00;;;;;;;6.84;100.00;98793.72;5073011;28;20178;-77
2021/12/01 03:13:08;;;;;;;0.10;0.10;;;;;;;6.85;100.00;98773.59;5072936;28;20174;-77
2021/12/01 03:15:33;;;;;;;0.10;0.10;;;;;;;6.93;100.00;98780.88;5072644;28;20225;-77
2021/12/01 03:18:00;;;;;;;0.03;0.03;;;;;;;7.06;100.00;98779.84;5072835;28;20174;-78
2021/12/01 03:20:26;;;;;;;0.10;0.10;;;;;;;7.11;100.00;98768.00;5072290;28;20170;-78
2021/12/01 03:22:51;;;;;;;0.20;0.13;;;;;;;7.11;100.00;98763.38;5072656;28;20171;-77
2021/12/01 03:25:16;;;;;;;0.00;0.00;;;;;;;7.14;100.00;98735.56;5072387;28;20190;-78
2021/12/01 03:27:42;;;;;;;0.20;0.20;;;;;;;7.28;100.00;98754.31;5072486;28;20220;-77
2021/12/01 03:30:11;;;;;;;0.20;0.20;;;;;;;7.37;100.00;98737.94;5072451;28;20891;-77
2021/12/01 03:32:38;;;;;;;0.00;0.00;;;;;;;7.44;100.00;98740.91;5072460;28;20178;-77
2021/12/01 03:35:09;;;;;;;0.10;0.10;;;;;;;7.47;100.00;98743.75;5071805;28;20708;-78
2021/12/01 03:37:35;;;;;;;0.20;0.20;;;;;;;7.52;100.00;98723.72;5072329;28;20533;-76
2021/12/01 03:40:01;;;;;;;0.17;0.17;;;;;;;7.50;100.00;98717.84;5072271;28;20174;-76
2021/12/01 03:42:26;;;;;;;0.00;0.00;;;;;;;7.61;100.00;98719.03;5072385;28;20174;-77
2021/12/01 03:44:55;;;;;;;0.00;0.00;;;;;;;7.65;100.00;98705.56;5072130;28;20239;-78
2021/12/01 03:47:20;;;;;;;0.40;0.40;;;;;;;7.68;100.00;98702.19;5071950;28;20171;-76
2021/12/01 03:49:46;;;;;;;0.10;0.10;;;;;;;7.68;100.00;98694.84;5072183;28;20170;-77
2021/12/01 03:52:16;;;;;;;0.00;0.00;;;;;;;7.72;100.00;98701.19;5071900;28;20171;-77
2021/12/01 03:54:41;;;;;;;0.20;0.20;;;;;;;7.76;100.00;98707.53;5070558;28;20208;-75
2021/12/01 03:57:06;;;;;;;0.00;0.00;;;;;;;7.78;100.00;98690.88;5071987;28;20267;-77
2021/12/01 03:59:32;;;;;;;0.20;0.20;;;;;;;7.78;100.00;98688.16;5072131;28;20171;-76
2021/12/01 04:01:57;;;;;;;0.13;0.00;;;;;;;7.80;100.00;98674.22;5072005;28;20177;-76
2021/12/01 04:04:22;;;;;;;0.30;0.03;;;;;;;7.81;100.00;98671.19;5072082;28;20174;-77
2021/12/01 04:06:48;;;;;;;0.00;0.00;;;;;;;7.81;100.00;98663.03;5071837;28;20253;-76
2021/12/01 04:09:13;;;;;;;0.00;0.00;;;;;;;7.85;100.00;98668.59;5071794;28;20192;-77
2021/12/01 04:11:38;;;;;;;0.10;0.10;;;;;;;7.85;100.00;98663.16;5071695;28;20166;-77
2021/12/01 04:14:04;;;;;;;0.10;0.10;;;;;;;7.81;100.00;98662.22;5071910;28;20269;-76
2021/12/01 04:16:29;;;;;;;0.20;0.20;;;;;;;7.80;100.00;98663.34;5071330;28;20234;-77
2021/12/01 04:18:55;;;;;;;0.07;0.07;;;;;;;7.78;100.00;98660.97;5072005;28;20194;-78
2021/12/01 04:21:20;;;;;;;0.10;0.10;;;;;;;7.78;100.00;98650.09;5071423;28;20158;-75
2021/12/01 04:23:46;;;;;;;0.00;0.00;;;;;;;7.78;100.00;98625.63;5071632;28;20171;-77
2021/12/01 04:26:15;;;;;;;0.00;0.00;;;;;;;7.77;100.00;98651.22;5071524;28;20184;-77
2021/12/01 04:28:41;;;;;;;0.30;0.27;;;;;;;7.72;100.00;98629.72;5071454;28;20170;-78
2021/12/01 04:31:06;;;;;;;0.17;0.10;;;;;;;7.67;100.00;98628.00;5071477;28;20177;-77
2021/12/01 04:33:32;;;;;;;0.07;0.07;;;;;;;7.65;100.00;98624.81;5071440;28;20174;-78
2021/12/01 04:35:57;;;;;;;0.43;0.17;;;;;;;7.65;100.00;98624.81;5070994;28;20279;-76
2021/12/01 04:38:22;;;;;;;0.10;0.10;;;;;;;7.65;100.00;98627.53;5071402;28;20170;-76
2021/12/01 04:40:48;;;;;;;0.00;0.00;;;;;;;7.63;100.00;98610.78;5071112;28;20193;-77
2021/12/01 04:43:13;;;;;;;0.17;0.10;;;;;;;7.60;100.00;98627.75;5071064;28;20204;-77
2021/12/01 04:45:42;;;;;;;0.97;0.90;;;;;;;7.61;100.00;98606.81;5071090;28;20171;-77
2021/12/01 04:48:07;;;;;;;0.23;0.23;;;;;;;7.61;100.00;98602.16;5070517;28;20166;-76
2021/12/01 04:50:33;;;;;;;0.20;0.20;;;;;;;7.60;100.00;98597.06;5070954;28;20170;-77
2021/12/01 04:52:58;;;;;;;0.10;0.10;;;;;;;7.59;100.00;98604.44;5071533;28;20228;-76
2021/12/01 04:55:26;;;;;;;0.10;0.10;;;;;;;7.56;100.00;98598.88;5069614;28;20633;-77
2021/12/01 04:57:51;;;;;;;0.00;0.00;;;;;;;7.55;100.00;98605.44;5071050;28;20170;-77
2021/12/01 05:00:27;;;;;;;0.10;0.10;;;;;;;7.53;100.00;98594.91;5071018;28;20166;-77
2021/12/01 05:02:53;;;;;;;0.27;0.27;;;;;;;7.51;100.00;98591.72;5071233;28;20626;-77
2021/12/01 05:05:19;;;;;;;5.73;0.20;;;;;;;7.51;100.00;98601.78;5070721;28;20666;-78
2021/12/01 05:07:44;;;;;;;0.00;0.00;;;;;;;7.50;100.00;98603.72;5070978;28;20181;-76
2021/12/01 05:10:10;;;;;;;0.50;0.50;;;;;;;7.52;100.00;98592.50;5069596;28;20505;-77
2021/12/01 05:12:36;;;;;;;0.10;0.10;;;;;;;7.55;100.00;98598.09;5070887;28;21305;-77
2021/12/01 05:15:02;;;;;;;0.00;0.00;;;;;;;7.53;100.00;98588.69;5070640;28;20213;-78
2021/12/01 05:17:27;;;;;;;0.00;0.00;;;;;;;7.52;100.00;98585.16;5071025;28;20166;-78
2021/12/01 05:19:52;;;;;;;0.10;0.10;;;;;;;7.50;100.00;98573.81;5071011;28;20537;-77
2021/12/01 05:22:18;;;;;;;0.00;0.00;;;;;;;7.50;100.00;98573.03;5070695;28;20270;-78
2021/12/01 05:24:43;;;;;;;0.10;0.10;;;;;;;7.50;100.00;98564.88;5070635;28;20691;-77
2021/12/01 05:27:09;;;;;;;0.03;0.03;;;;;;;7.49;100.00;98566.81;5070819;28;20170;-77
2021/12/01 05:29:35;;;;;;;0.00;0.00;;;;;;;7.49;100.00;98566.03;5070958;28;20174;-77
2021/12/01 05:32:01;;;;;;;0.20;0.20;;;;;;;7.50;100.00;98556.72;5070886;28;20194;-78
2021/12/01 05:34:27;;;;;;;0.00;0.00;;;;;;;7.48;100.00;98548.94;5070628;28;20259;-77
2021/12/01 05:36:53;;;;;;;0.20;0.20;;;;;;;7.44;100.00;98539.88;5070403;28;20209;-78
2021/12/01 05:39:19;;;;;;;0.00;0.00;;;;;;;7.44;100.00;98537.16;5071003;28;20534;-78
2021/12/01 05:41:45;;;;;;;0.00;0.00;;;;;;;7.43;100.00;98530.13;5071000;28;20184;-78
2021/12/01 05:44:10;;;;;;;0.40;0.40;;;;;;;7.41;100.00;98522.31;5070836;28;20521;-77
2021/12/01 05:46:36;;;;;;;0.00;0.00;;;;;;;7.44;100.00;98529.00;5070341;28;20198;-78
2021/12/01 05:49:03;;;;;;;0.10;0.10;;;;;;;7.44;100.00;98516.22;5069877;28;20171;-77
2021/12/01 05:51:28;;;;;;;0.00;0.00;;;;;;;7.44;100.00;98507.28;5069725;28;20167;-78
2021/12/01 05:53:54;;;;;;;0.20;0.20;;;;;;;7.42;100.00;98506.81;5069912;28;20240;-79
2021/12/01 05:56:20;;;;;;;0.00;0.00;;;;;;;7.40;100.00;98499.00;5070406;28;20253;-79
2021/12/01 05:58:45;;;;;;;0.20;0.10;;;;;;;7.38;100.00;98492.34;5077493;28;20228;-79
2021/12/01 06:01:10;;;;;;;0.00;0.00;;;;;;;7.38;100.00;98486.91;5082954;28;20182;-79
2021/12/01 06:03:38;;;;;;;0.20;0.20;;;;;;;7.36;100.00;98481.78;5074274;28;20710;-79
2021/12/01 06:06:04;;;;;;;0.10;0.10;;;;;;;7.35;100.00;98466.63;5073824;28;20579;-79
2021/12/01 06:08:29;;;;;;;0.33;0.30;;;;;;;7.36;100.00;98464.69;5073995;28;20250;-78
2021/12/01 06:10:55;;;;;;;0.10;0.10;;;;;;;7.34;100.00;98464.25;5073924;28;20183;-79
2021/12/01 06:13:21;;;;;;;0.20;0.10;;;;;;;7.33;100.00;98481.66;5074123;28;20182;-78
2021/12/01 06:15:49;;;;;;;0.00;0.00;;;;;;;7.42;100.00;98458.72;5073784;28;20678;-78
2021/12/01 06:18:15;;;;;;;0.07;0.07;;;;;;;7.41;100.00;98467.19;5073934;28;20179;-78
2021/12/01 06:20:41;;;;;;;0.10;0.10;;;;;;;7.41;100.00;98483.50;5073485;28;20178;-79
2021/12/01 06:23:06;;;;;;;0.10;0.10;;;;;;;7.44;100.00;98480.91;5073798;28;20175;-78
2021/12/01 06:25:32;;;;;;;0.00;0.00;;;;;;;7.44;100.00;98480.91;5073587;28;20190;-78
2021/12/01 06:27:57;;;;;;;0.07;0.07;;;;;;;7.48;100.00;98464.69;5073743;28;20231;-78
2021/12/01 06:30:25;;;;;;;0.10;0.10;;;;;;;7.47;100.00;98471.25;5073638;28;20193;-78
2021/12/01 06:32:50;;;;;;;0.00;0.00;;;;;;;7.47;100.00;98473.97;5073513;28;20269;-78
2021/12/01 06:35:17;;;;;;;0.10;0.10;;;;;;;7.48;100.00;98448.41;5073553;28;20336;-79
2021/12/01 06:37:42;;;;;;;0.57;0.17;;;;;;;7.51;100.00;98450.44;5073475;28;20508;-78
2021/12/01 06:40:09;;;;;;;0.00;0.00;;;;;;;7.54;100.00;98463.34;5073495;28;20203;-78
2021/12/01 06:42:35;;;;;;;0.20;0.10;;;;;;;7.53;100.00;98450.13;5073336;28;20630;-78
2021/12/01 06:45:03;;;;;;;0.00;0.00;;;;;;;7.55;100.00;98442.41;5073241;28;20179;-78
2021/12/01 06:47:29;;;;;;;0.30;0.30;;;;;;;7.61;100.00;98422.00;5073278;28;20205;-78
2021/12/01 06:49:54;;;;;;;0.20;0.20;;;;;;;7.58;100.00;98434.38;5073323;28;20182;-78
2021/12/01 06:52:20;;;;;;;0.00;0.00;;;;;;;7.59;100.00;98416.91;5073302;28;20174;-78
2021/12/01 06:54:45;;;;;;;0.00;0.00;;;;;;;7.57;100.00;98411.03;5073013;28;20185;-78
2021/12/01 06:57:11;;;;;;;0.30;0.30;;;;;;;7.60;100.00;98415.00;5073202;28;20254;-77
2021/12/01 06:59:36;;;;;;;0.00;0.00;;;;;;;7.60;100.00;98421.22;5073256;28;20175;-78
2021/12/01 07:02:01;;;;;;;0.00;0.00;;;;;;;7.60;100.00;98413.06;5072942;28;20600;-78
2021/12/01 07:04:27;;;;;;;0.37;0.20;;;;;;;7.59;100.00;98403.34;5073009;28;20179;-77
2021/12/01 07:06:52;;;;;;;0.27;0.20;;;;;;;7.57;100.00;98373.00;5072842;28;20185;-78
2021/12/01 07:09:19;;;;;;;0.10;0.10;;;;;;;7.54;100.00;98392.72;5073017;28;20186;-78
2021/12/01 07:11:45;;;;;;;2.63;0.53;;;;;;;7.50;100.00;98383.63;5072355;28;20217;-78
2021/12/01 07:14:11;;;;;;;0.10;0.10;;;;;;;7.49;100.00;98382.06;5072924;28;20229;-78
2021/12/01 07:16:36;;;;;;;0.17;0.17;;;;;;;7.47;100.00;98382.41;5072425;28;20583;-78
2021/12/01 07:19:02;;;;;;;0.30;0.30;;;;;;;7.45;100.00;98376.53;5072770;28;20568;-77
2021/12/01 07:21:27;;;;;;;0.00;0.00;;;;;;;7.42;100.00;98360.13;5072500;28;20522;-78
2021/12/01 07:23:53;;;;;;;0.30;0.20;;;;;;;7.42;100.00;98365.56;5072649;28;20598;-78
2021/12/01 07:26:18;;;;;;;0.00;0.00;;;;;;;7.43;100.00;98370.63;5071106;28;20174;-78
2021/12/01 07:28:43;;;;;;;0.10;0.10;;;;;;;7.44;100.00;98358.63;5072575;28;20183;-77
2021/12/01 07:31:09;;;;;;;0.10;0.10;;;;;;;7.41;100.00;98356.59;5072577;28;20179;-77
2021/12/01 07:33:34;;;;;;;0.10;0.10;;;;;;;7.41;100.00;98343.03;5072543;28;20197;-76
2021/12/01 07:36:00;;;;;;;0.30;0.30;;;;;;;7.39;100.00;98331.72;5072059;28;20202;-78
2021/12/01 07:38:26;;;;;;;0.00;0.00;;;;;;;7.38;100.00;98321.19;5072338;28;20075;-77
2021/12/01 07:40:52;;;;;;;0.10;0.10;;;;;;;7.40;100.00;98308.06;5072296;28;20820;-78
2021/12/01 07:43:17;;;;;;;0.40;0.40;;;;;;;7.41;100.00;98298.78;5072093;28;20532;-78
2021/12/01 07:45:44;;;;;;;0.10;0.10;;;;;;;7.38;100.00;98292.09;5072032;28;20182;-78
2021/12/01 07:48:12;;;;;;;9.23;0.50;;;;;;;7.39;100.00;98292.91;5071999;28;20654;-77
2021/12/01 07:50:37;;;;;;;0.20;0.20;;;;;;;7.41;100.00;98277.81;5071989;28;20207;-78
2021/12/01 07:53:02;;;;;;;0.00;0.00;;;;;;;7.40;100.00;98276.25;5071866;28;20237;-78
2021/12/01 07:55:28;;;;;;;0.00;0.00;;;;;;;7.48;100.00;98266.38;5071590;28;20507;-77
2021/12/01 07:57:53;;;;;;;0.20;0.13;;;;;;;7.46;100.00;98264.00;5071989;28;20177;-77
2021/12/01 08:00:18;;;;;;;0.00;0.00;;;;;;;7.47;100.00;98256.63;5071854;28;20175;-77
2021/12/01 08:02:45;;;;;;;0.10;0.10;;;;;;;7.49;100.00;98254.34;5068038;28;20218;-77
2021/12/01 08:05:11;;;;;;;0.27;0.20;;;;;;;7.50;100.00;98242.34;5071296;28;20213;-78
2021/12/01 08:07:38;;;;;;;0.83;0.20;;;;;;;7.50;100.00;98255.16;5071423;28;20670;-76
2021/12/01 08:10:06;;;;;;;0.00;0.00;;;;;;;7.49;100.00;98248.94;5071423;28;20197;-77
2021/12/01 08:12:33;;;;;;;0.00;0.00;;;;;;;7.48;100.00;98236.47;5071519;28;20171;-77
2021/12/01 08:15:02;;;;;;;0.10;0.10;;;;;;;7.49;100.00;98229.91;5071422;28;20305;-77
2021/12/01 08:17:27;;;;;;;0.13;0.13;;;;;;;7.50;100.00;98236.91;5071424;28;20603;-77
2021/12/01 08:19:53;;;;;;;0.30;0.10;;;;;;;7.55;100.00;98233.19;5071503;28;20249;-77
2021/12/01 08:22:18;;;;;;;0.43;0.40;;;;;;;7.49;100.00;98229.91;5070274;28;20171;-79
2021/12/01 08:24:43;;;;;;;0.27;0.20;;;;;;;7.54;100.00;98237.03;5071162;28;20258;-78
2021/12/01 08:27:09;;;;;;;0.03;0.03;;;;;;;7.56;100.00;98223.91;5071194;28;20178;-79
2021/12/01 08:29:34;;;;;;;0.30;0.30;;;;;;;7.57;100.00;98228.19;5071289;28;20277;-79
2021/12/01 08:31:59;;;;;;;0.10;0.10;;;;;;;7.57;100.00;98212.69;5071332;28;20182;-79
2021/12/01 08:34:25;;;;;;;0.10;0.10;;;;;;;7.59;100.00;98221.28;5071593;28;20265;-78
2021/12/01 08:36:51;;;;;;;0.10;0.10;;;;;;;7.56;100.00;98213.81;5071039;28;20240;-78
2021/12/01 08:39:17;;;;;;;0.10;0.10;;;;;;;7.52;100.00;98212.91;5071119;28;20170;-78
2021/12/01 08:41:43;;;;;;;0.93;0.63;;;;;;;7.49;100.00;98215.53;5069871;28;20181;-79
2021/12/01 08:44:08;;;;;;;0.70;0.10;;;;;;;7.50;100.00;98204.31;5071097;28;20170;-78
2021/12/01 08:46:34;;;;;;;0.30;0.10;;;;;;;7.51;100.00;98189.59;5070798;28;20186;-78
2021/12/01 08:48:59;;;;;;;0.20;0.20;;;;;;;7.50;100.00;98196.16;5064785;28;20179;-78
2021/12/01 08:51:26;;;;;;;0.00;0.00;;;;;;;7.49;100.00;98196.53;5070312;28;20194;-78
2021/12/01 08:53:52;;;;;;;0.10;0.00;;;;;;;7.49;100.00;98204.66;5070526;28;20543;-79
2021/12/01 08:56:17;;;;;;;0.87;0.57;;;;;;;7.46;100.00;98181.69;5070801;28;20289;-77
2021/12/01 08:58:43;;;;;;;0.00;0.00;;;;;;;7.46;100.00;98193.38;5070746;28;20219;-78
2021/12/01 09:01:08;;;;;;;0.00;0.00;;;;;;;7.41;100.00;98184.69;5068348;28;20175;-77
2021/12/01 09:03:34;;;;;;;0.20;0.20;;;;;;;7.39;100.00;98178.81;5065696;28;20212;-78
2021/12/01 09:05:59;;;;;;;0.10;0.10;;;;;;;7.38;100.00;98197.03;5069701;28;20650;-76
2021/12/01 09:08:25;;;;;;;0.20;0.20;;;;;;;7.36;100.00;98188.41;5070517;28;20182;-78
2021/12/01 09:10:53;;;;;;;0.30;0.30;;;;;;;7.36;100.00;98191.13;5070657;28;20179;-78
2021/12/01 09:13:22;;;;;;;0.30;0.20;;;;;;;7.35;100.00;98178.69;5070854;28;20182;-78
2021/12/01 09:15:48;;;;;;;0.00;0.00;;;;;;;7.30;100.00;98197.94;5070791;28;20244;-78
2021/12/01 09:18:13;;;;;;;0.40;0.40;;;;;;;7.28;100.00;98178.50;5070817;28;20198;-78
2021/12/01 09:20:38;;;;;;;0.07;0.07;;;;;;;7.24;100.00;98169.47;5070433;28;20224;-77
2021/12/01 09:23:04;;;;;;;0.13;0.10;;;;;;;7.18;100.00;98159.97;5070573;28;20183;-78
2021/12/01 09:25:31;;;;;;;0.00;0.00;;;;;;;7.14;100.00;98157.16;5070421;28;20212;-77
2021/12/01 09:27:56;;;;;;;0.03;0.03;;;;;;;7.12;100.00;98154.00;5070667;28;20186;-78
2021/12/01 09:30:22;;;;;;;0.97;0.07;;;;;;;7.09;100.00;98146.56;5070530;28;20213;-78
2021/12/01 09:32:47;;;;;;;0.00;0.00;;;;;;;7.07;100.00;98123.56;5070697;28;20190;-78
2021/12/01 09:35:14;;;;;;;0.30;0.10;;;;;;;7.04;100.00;98107.97;5074287;28;20228;-85
2021/12/01 09:37:39;;;;;;;0.00;0.00;;;;;;;7.05;100.00;98101.41;5073353;28;20185;-77
2021/12/01 09:40:13;;;;;;;0.00;0.00;;;;;;;7.01;100.00;98104.03;5074489;28;20174;-78
2021/12/01 09:42:42;;;;;;;0.00;0.00;;;;;;;7.03;100.00;98107.19;5074309;28;20202;-78
2021/12/01 09:45:09;;;;;;;0.13;0.13;;;;;;;7.05;100.00;98109.56;5074862;28;20182;-79
2021/12/01 09:47:35;;;;;;;0.20;0.20;;;;;;;7.06;100.00;98103.78;5074380;28;20189;-77
2021/12/01 09:50:01;;;;;;;0.23;0.23;;;;;;;7.09;100.00;98102.31;5074292;28;20645;-78
2021/12/01 09:52:26;;;;;;;0.00;0.00;;;;;;;7.09;100.00;98097.69;5074305;28;20171;-77
2021/12/01 09:54:52;;;;;;;0.00;0.00;;;;;;;7.11;100.00;98100.84;5074220;28;20175;-77
2021/12/01 09:57:17;;;;;;;0.23;0.17;;;;;;;7.14;100.00;98089.28;5074425;28;20186;-78
2021/12/01 09:59:43;;;;;;;0.00;0.00;;;;;;;7.15;100.00;98074.56;5074172;28;20250;-77
2021/12/01 10:02:10;;;;;;;0.13;0.13;;;;;;;7.15;100.00;98074.56;5074018;28;20266;-77
2021/12/01 10:04:36;;;;;;;1.60;0.20;;;;;;;7.19;100.00;98068.44;5074453;28;20257;-77
2021/12/01 10:07:22;;;;;;;0.00;0.00;;;;;;;7.22;100.00;98070.44;5073821;28;20598;-77
2021/12/01 10:09:51;;;;;;;0.00;0.00;;;;;;;7.26;100.00;98066.72;5073953;28;20232;-77
2021/12/01 10:12:18;;;;;;;0.20;0.00;;;;;;;7.28;100.00;98040.00;5072364;28;20206;-77
2021/12/01 10:14:48;;;;;;;0.33;0.30;;;;;;;7.34;100.00;98051.38;5073711;28;20174;-77
2021/12/01 10:17:16;;;;;;;0.07;0.07;;;;;;;7.37;100.00;98034.38;5073941;28;20189;-77
2021/12/01 10:19:41;;;;;;;0.20;0.20;;;;;;;7.39;100.00;98038.34;5073855;28;20174;-77
2021/12/01 10:22:11;;;;;;;0.10;0.10;;;;;;;7.41;100.00;98044.22;5073759;28;20240;-77
2021/12/01 10:24:39;;;;;;;0.00;0.00;;;;;;;7.40;100.00;98037.22;5073653;28;20258;-77
2021/12/01 10:27:14;;;;;;;0.50;0.30;;;;;;;7.41;100.00;98033.34;5073495;28;20178;-79
2021/12/01 10:29:49;;;;;;;0.10;0.10;;;;;;;7.43;100.00;98025.63;5073530;28;20223;-77
2021/12/01 10:32:16;;;;;;;0.00;0.00;;;;;;;7.43;100.00;98008.56;5073593;28;20170;-77
2021/12/01 10:34:53;;;;;;;0.10;0.10;;;;;;;7.45;100.00;98004.34;5073111;28;20593;-78
2021/12/01 10:37:30;;;;;;;0.10;0.10;;;;;;;7.48;100.00;98005.56;5072730;28;20629;-79
2021/12/01 10:40:21;;;;;;;0.10;0.10;;;;;;;7.49;100.00;97996.28;5073007;28;20641;-78
2021/12/01 10:42:59;;;;;;;0.00;0.00;;;;;;;7.50;100.00;97992.41;5073086;28;20175;-78
2021/12/01 10:45:45;;;;;;;0.00;0.00;;;;;;;7.54;100.00;97985.16;5071850;28;20582;-78
2021/12/01 10:48:22;;;;;;;0.00;0.00;;;;;;;7.57;100.00;97976.28;5073062;28;20174;-77
2021/12/01 10:50:47;;;;;;;0.10;0.10;;;;;;;7.59;100.00;97974.00;5073051;28;20178;-78
2021/12/01 10:53:15;;;;;;;0.00;0.00;;;;;;;7.59;100.00;97963.13;5072830;28;20185;-78
2021/12/01 10:55:47;;;;;;;0.23;0.20;;;;;;;7.59;100.00;97946.06;5072929;28;20217;-77
2021/12/01 10:58:15;;;;;;;0.00;0.00;;;;;;;7.62;100.00;97962.44;5071458;28;20197;-77
2021/12/01 11:00:49;;;;;;;0.10;0.10;;;;;;;7.63;100.00;97953.13;5072711;28;20315;-77
2021/12/01 11:03:19;;;;;;;0.23;0.07;;;;;;;7.65;100.00;97947.34;5072674;28;20541;-78
2021/12/01 11:05:48;;;;;;;0.00;0.00;;;;;;;7.66;100.00;97938.84;5072804;28;20186;-79
2021/12/01 11:08:15;;;;;;;0.30;0.10;;;;;;;7.67;100.00;97932.28;5072493;28;20178;-78
2021/12/01 11:10:43;;;;;;;0.10;0.10;;;;;;;7.68;100.00;97936.56;5070895;28;20210;-78
2021/12/01 11:13:09;;;;;;;0.00;0.00;;;;;;;7.68;100.00;97925.72;5072392;28;20227;-78
2021/12/01 11:15:41;;;;;;;0.13;0.13;;;;;;;7.65;100.00;97915.53;5072225;28;20228;-78
2021/12/01 11:18:08;;;;;;;0.10;0.10;;;;;;;7.68;100.00;97909.41;5072577;28;20642;-77
2021/12/01 11:20:40;;;;;;;0.00;0.00;;;;;;;7.69;100.00;97918.34;5072302;28;20170;-78
2021/12/01 11:23:11;;;;;;;0.20;0.00;;;;;;;7.66;100.00;97895.34;5072300;28;20641;-78
2021/12/01 11:25:37;;;;;;;0.00;0.00;;;;;;;7.67;100.00;97894.25;5071851;28;20166;-78
2021/12/01 11:28:13;;;;;;;0.00;0.00;;;;;;;7.65;100.00;97887.56;5072347;28;20232;-78
2021/12/01 11:30:40;;;;;;;0.20;0.20;;;;;;;7.62;100.00;97882.84;5069480;28;20649;-78
2021/12/01 11:33:05;;;;;;;0.10;0.10;;;;;;;7.65;100.00;97876.69;5071957;28;20179;-76
2021/12/01 11:35:31;;;;;;;0.53;0.00;;;;;;;7.69;100.00;97870.22;5071878;28;20751;-77
2021/12/01 11:37:57;;;;;;;0.13;0.10;;;;;;;7.68;100.00;97871.34;5072282;28;20198;-77
2021/12/01 11:40:28;;;;;;;0.67;0.10;;;;;;;7.72;100.00;97861.34;5072438;28;20563;-77